Главная страница
METAR-TAF:

METAR-TAF

Аэропорты :

Хейдрун, Норвегия

широта: 65-19-30N, долгота: 007-19-36E, высота над уровнем моря: 0 м

Текущие метеонаблюдения

Эта сводка был подготовлена 25 минут назад, в 21:50 UTC
Ветер 10 Узел от северо-западный
Температура 4°C
Влажность 70%
Давление 1007 hPa
Видимость 10 км и более
Отдельные облака на высоте 2400 фута

METAR: ENHE 072150Z 32010KT 9999 SCT024 04/M01 Q1007 W///S3

Время: 00:15 (22:15 UTC)

Прогноз

Эта сводка был подготовлена 2 часа и 15 минут назад, в 20:00 UTC
Прогноз действительный с 07-го 21 UTC до 08-го 06 UTC
Ветер 8 Узел от северо-западный
Видимость 10 км и более
небольшая облачность на высоте 2000 фута, Кучево-дождевые.
Отдельные облака на высоте 3000 фута
временами
С 07-го 21 UTC до 08-го 06 UTC
Видимость: 3000 м
на высоте 1200 фута
ливневые снегопады, дождь

TAF: ENHE 072000Z 0721/0806 31008KT 9999 FEW020CB SCT030 TEMPO 0721/0806 3000 SHSNRA VV012

Метеонаблюдения и прогнозы для более 4000 аэропортов (сводки METAR и TAF).

Имеющиеся станции представлены на карте желтыми и красными точками.

Чтобы увидеть название станции, наведите на нее мышь.

Затем щелкните, чтобы увидеть метеонаблюдения и метеопрогнозы.

Управление картой: чтобы увеличить масштаб, щелкните зеленые кнопки с черным крестиком; чтобы уменьшить масштаб, щелкните зеленую кнопку с тире; для просмотра соседних карт щелкайте зеленые стрелки.


METAR-TAF: